CTSO2: Bird Creek At Catoosa

                                SHEF ID:       CTSO2     Bird Ck at State Highway 266 nea
STATION TYPE:
Regulating: Stage = 26.00, Flow = 20953

STAGE STAGE(2) RIV-FLOW WTR-TEMP DIS-OXY PH CONDUCT BAT-LOAD
ft ft cfs F mg/l su umho/cm volt
Ccp-Rev Ccp-Rev Ccp-Rev Ccp-Rev Ccp-Rev Ccp-Rev Ccp-Rev Ccp-Rev
(America/Chicago)
02/28 00:00 3.94 3.42 147 55.29 10.58 7.94 466 12.40
02/28 01:00 3.96 3.42 151 55.36 10.67 7.94 468 11.98
02/28 02:00 3.94 3.42 147 55.49 10.87 7.94 472 12.14
02/28 03:00 3.94 3.42 147 55.63 10.75 7.94 477 11.92
02/28 04:00 3.93 3.42 145 55.71 10.55 7.95 480 11.93
02/28 05:00 3.93 3.42 145 55.72 10.52 7.95 476 11.99
02/28 06:00 3.90 3.42 139 55.80 10.47 7.94 475 11.98
02/28 07:00 3.91 3.42 141 55.96 10.29 8.00 475 11.94
02/28 08:00 3.90 3.42 139 56.30 10.30 8.01 479 12.24
02/28 09:00 3.91 3.42 141 56.68 10.30 7.97 483 13.31
02/28 10:00 3.89 3.42 137 56.88 10.26 7.97 483 13.35
02/28 11:00 3.92 3.42 143 57.15 10.29 7.97 484 13.11
02/28 12:00 3.93 3.42 145 57.51 10.30 7.98 484 12.83
02/28 13:00 3.95 3.42 149 57.79 10.31 8.00 481 12.73
02/28 14:00 3.95 3.42 149 57.85 10.21 7.97 478 12.73
02/28 15:00 3.96 3.42 151 57.81 10.19 7.97 482 12.63
02/28 16:00 3.98 3.42 155 57.72 10.12 7.97 486 12.65
02/28 17:00 3.98 3.42 155 57.58 10.03 7.92 485 12.44
02/28 18:00 3.98 3.42 155 57.40 9.85 7.91 480 12.53
02/28 19:00 3.98 3.42 155 57.22 9.88 7.90 478 12.57
02/28 20:00 3.98 3.42 155 57.16 9.81 7.88 477 12.50
02/28 21:00 3.98 3.42 155 57.11 9.90 7.88 476 12.04
02/28 22:00 3.97 3.42 153 57.06 9.75 7.89 473 12.21
02/28 23:00 ---- ---- ---- ---- ---- ---- ---- ----
Data processed at Sun 01Mar2026 05:21 GMT

NOTICE: If you are parsing this page

Please convert to using our Data API. Starting early 2026 we will be migrating to: https://water.usace.army.mil with modern pages rendered in JavaScript. When this migration completes you will no longer be able to scrape this page! CWMSDataAPI (CDA)

Timeseries IDs (TSIDs)

TSIDs used from left to right in the data table
CATB.Stage.Inst.1Hour.0.Ccp-Rev
CATB.Stage-Alt.Inst.1Hour.0.Ccp-Rev
CATB.Flow.Inst.1Hour.0.Ccp-Rev
CATB.Temp-Water.Inst.1Hour.0.Ccp-Rev
CATB.Conc-DO.Inst.1Hour.0.Ccp-Rev
CATB.pH.Inst.1Hour.0.Ccp-Rev
CATB.Cond-Water.Inst.1Hour.0.Ccp-Rev
CATB.Volt-Battery Load.Inst.1Hour.0.Ccp-Rev

                            

All information presented herein is the property of the government of the United States of America and may be revised or deleted at any time without prior notice. Dissemination of this information without the expressed written consent of the Public Affairs Office, Tulsa District U.S. Army Corps of Engineers is strictly prohibited. These data are gathered electronically and, as presented, have NOT undergone any form of quality control. These data are NOT guaranteed to be valid or correct.